Terminal Aerodrome Forecast
Issued by NWS Grand Forks, ND

Home | Current Version | Previous Version | Graphics & Text | Print | Product List | Glossary On
Versions: 1 2 3 4 5 6 7 8 9 10 11 12 13 14 15 16 17 18 19 20
000
FTUS43 KFGF 220759 AAA
TAFFAR
TAF AMD
KFAR 220759Z 2208/2306 VRB04KT 4SM BR BKN080
      TEMPO 2208/2212 1/2SM FG BKN002
     FM221200 30007KT P6SM BKN005
      TEMPO 2212/2214 3SM BR
     FM221800 33010KT 3SM -RA OVC008
     FM222100 34014G23KT P6SM OVC003
     FM222300 35014KT P6SM OVC003=

USA.gov is the U.S. government's official web portal to all federal, state and local government web resources and services.